Terminal Aerodrome Forecast
Issued by NWS

Home | Current Version | Previous Version | Text Only | Print | Product List | Glossary On
Versions: 1 2 3 4 5 6 7 8 9 10 11 12 13 14 15 16 17 18 19 20 21 22 23 24 25
000
FTAK31 PAFA 020539
TAFASC
TAF
PASC 020539Z 0206/0306 25010KT P6SM VCSH SCT025 BKN050 BKN100
     FM021000 25012KT P6SM FEW008 BKN035 BKN070
     FM021800 25020KT P6SM VCSH BKN030 BKN060
     FM022200 25020G28KT P6SM -SHRASN BKN015 OVC030=

USA.gov is the U.S. government's official web portal to all federal, state and local government web resources and services.